NCAR-RAP Real-Time Weather Data

Output produced by METARs form (20 February 2019  18:12 UTC)
found at http://weather.rap.ucar.edu/surface/
 
RJFT 201200Z 33003KT 280V040 CAVOK 06/04 Q1022
RJFT 201100Z 33005KT CAVOK 08/04 Q1022
RJFT 201000Z 28003KT 9999 FEW030 BKN180 08/04 Q1022
RJFT 200900Z 29005KT 9999 BKN030 09/03 Q1022
RJFT 200800Z 29005KT 250V320 9999 FEW040 11/03 Q1021
RJFT 200700Z 28008KT 9999 FEW030 BKN/// 12/03 Q1021
RJFT 200600Z 27007KT 230V330 9999 SCT030 13/04 Q1021
RJFT 200500Z 26007KT 230V300 9999 FEW027 BKN035 12/05 Q1021
RJFT 200400Z 28008KT 250V320 9999 FEW025 BKN030 11/05 Q1021
RJFT 200300Z 29009KT 260V330 9999 FEW025 SCT035 BKN100 12/06 Q1022
RJFT 200200Z 29007KT 9999 SCT020 SCT025 BKN035 10/06 Q1022
RJFT 200100Z 27008KT 240V310 9999 FEW015 SCT025 BKN030 11/06 Q1022
RJFT 200000Z 28003KT 240V340 9999 FEW010 SCT015 BKN025 10/08 Q1021
RJFT 192300Z VRB01KT 9999 FEW005 SCT015 BKN020 10/10 Q1021
RJFT 192200Z 30005KT 9999 -SHRA FEW005 SCT015 BKN020 10/10 Q1020
RJFT 192110Z 27006KT 9999 FEW010 SCT015 BKN020 10/10 Q1020 RMK 1ST010 3CU015 7CU020 A3013
RJFT 191200Z 22006KT 9999 FEW007 SCT010 BKN020 13/13 Q1018
RJFT 191112Z 22006KT 9999 FEW005 SCT008 BKN020 14/14 Q1017 RMK 1ST005 3ST008 7CU020 A3004
RJFT 191100Z 21005KT 9999 FEW005 BKN008 BKN010 14/14 Q1017
RJFT 191048Z 21005KT 9999 FEW005 BKN008 BKN010 14/14 Q1017 RMK 1ST005 5ST008 6CU010 A3003
RJFT 191000Z 20007KT 9999 FEW005 SCT010 BKN020 14/14 Q1016
RJFT 190900Z 21006KT 170V240 9999 FEW007 SCT010 BKN020 16/16 Q1015
RJFT 190800Z 23011KT 9999 FEW005 SCT010 BKN020 16/16 Q1015
RJFT 190700Z 24011KT 9999 FEW003 SCT008 BKN010 16/16 Q1014
RJFT 190600Z 25014KT 7000 VCSH PRFG FEW001 SCT004 BKN010 16/16 Q1014
RJFT 190551Z 25011KT 5000 R07/0600VP1800U BR BCFG FEW001 SCT002 BKN005 16/16 Q1013 RMK 2ST001 3ST002 6ST005 A2994 2000SE-S FG ALL QUAD
RJFT 190550Z 25011KT 5000 R07/0300VP1800U BR BCFG FEW001 SCT002 BKN005 16/16 Q1013 RMK 2ST001 3ST002 6ST005 A2994 2000SE-S FG ALL QUAD
RJFT 190547Z 26011KT 3000 R07/0300VP1800U -SHRA BR BCFG FEW001 SCT002 BKN005 16/16 Q1013 RMK 2ST001 4ST002 7ST005 A2994 FG ALL QUAD
RJFT 190545Z 26011KT 1000 R07/0300VP1800U -SHRA BR BCFG SCT001 BKN002 BKN005 16/16 Q1013 RMK 3ST001 5ST002 7ST005 A2994 FG ALL QUAD
RJFT 190540Z 26011KT 0200 R07/0300V0800D -SHRA FG VV001 16/16 Q1013 RMK A2994
RJFT 190539Z 26010KT 0300 R07/0300V0800D -SHRA FG VV001 16/16 Q1013 RMK A2994
RJFT 190537Z 26010KT 0200 R07/0350V0800D FG VV001 16/16 Q1013 RMK A2994
RJFT 190533Z 25009KT 0200 R07/0450V0800D FG VV001 16/16 Q1013 RMK A2994
RJFT 190520Z 24011KT 0500 R07/0300V1400U -SHRA FG SCT001 BKN002 BKN005 16/16 Q1013 RMK 3ST001 5ST002 7ST005 A2993
RJFT 190518Z 24011KT 0300 R07/0300V0650U -SHRA FG SCT001 BKN002 BKN005 16/16 Q1013 RMK 3ST001 5ST002 7ST005 A2993
RJFT 190517Z 24010KT 0200 R07/0300V0650U -SHRA FG VV001 16/16 Q1013 RMK A2993
RJFT 190500Z 24011KT 0200 R07/0300V0500N -SHRA FG VV001 16/16 Q1013
RJFT 190449Z 24014KT 0300 R07/0350VP1800D -SHRA FG SCT001 BKN002 BKN005 16/16 Q1013 RMK 3ST001 5ST002 7ST005 A2992
RJFT 190448Z 24014KT 0300 R07/0350VP1800D -SHRA FG SCT001 BKN002 BKN005 16/16 Q1013 RMK 3ST001 5ST002 7ST005 A2992
RJFT 190446Z 24014KT 0300 R07/0550VP1800D SHRA FG SCT001 BKN002 BKN005 16/16 Q1013 RMK 3ST001 5ST002 7ST005 A2992
RJFT 190440Z 24014KT 0800 R07/0900VP1800U SHRA FG SCT001 BKN002 BKN005 16/16 Q1013 RMK 3ST001 5ST002 7ST005 A2992
RJFT 190438Z 24014KT 1500 R07/0450VP1800D SHRA BR BCFG FEW001 SCT002 BKN005 17/17 Q1013 RMK 2ST001 4ST002 7ST005 A2992 FG ALL QUAD
RJFT 190437Z 24014KT 1000 R07/0350VP1800U SHRA BR BCFG FEW001 SCT002 BKN005 16/16 Q1013 RMK 2ST001 4ST002 7ST005 A2992 FG ALL QUAD
RJFT 190433Z 24014KT 0800 R07/0350VP1800U +SHRA FG SCT001 BKN002 BKN005 17/17 Q1013 RMK 3ST001 5ST002 7ST005 A2993 RI++
RJFT 190432Z 24014KT 0800 R07/0350VP1800U SHRA FG SCT001 BKN002 BKN005 17/17 Q1013 RMK 3ST001 5ST002 7ST005 A2993
RJFT 190430Z 24013KT 0500 R07/0350VP1800U -SHRA FG SCT001 BKN002 BKN005 17/17 Q1013 RMK 3ST001 5ST002 7ST005 A2993
RJFT 190420Z 22012KT 0200 R07/0300V0450N -SHRA FG VV001 17/17 Q1013 RMK A2993
RJFT 190418Z 22012KT 0200 R07/0300V1000D SHRA FG VV001 17/17 Q1013 RMK A2992
RJFT 190413Z 23012KT 0300 R07/0300V1000D SHRA FG VV001 17/17 Q1013 RMK A2993
RJFT 190410Z 23012KT 0500 R07/0350V1000U SHRA FG SCT001 BKN002 BKN005 17/17 Q1013 RMK 3ST001 5ST002 7ST005 A2993
RJFT 190406Z 22010KT 0500 R07/0350V1300D +SHRA FG SCT001 BKN002 BKN005 17/17 Q1013 RMK 3ST001 5ST002 7ST005 A2993 RI++
RJFT 190402Z 21009KT 180V240 0500 R07/0450V1600D -SHRA FG SCT001 BKN002 BKN005 17/17 Q1013 RMK 3ST001 5ST002 7ST005 A2992
RJFT 190401Z 20010KT 0500 R07/0450V1700D -SHRA FG SCT001 BKN002 BKN005 17/17 Q1013 RMK 3ST001 5ST002 7ST005 A2992
RJFT 190400Z 20010KT 0500 R07/0450V1700D -SHRA FG SCT001 BKN002 BKN005 17/17 Q1013
RJFT 190346Z 19010KT 0800 R07/1600VP1800N -SHRA FG SCT001 BKN002 BKN005 16/16 Q1013 RMK 3ST001 5ST002 7ST005 A2992
RJFT 190343Z 19009KT 2000 R07/0650VP1800U -SHRA BR BCFG FEW001 SCT002 BKN005 16/16 Q1013 RMK 2ST001 4ST002 7ST005 A2993 FG ALL QUAD
RJFT 190341Z 18008KT 150V220 2000 R07/0400VP1800U -SHRA BR BCFG FEW001 SCT002 BKN005 16/16 Q1013 RMK 2ST001 4ST002 7ST005 A2993 FG ALL QUAD
RJFT 190337Z 16006KT 120V210 2000 R07/0300VP1800U -SHRA BR BCFG FEW001 SCT002 BKN003 15/15 Q1013 RMK 2ST001 4ST002 7ST003 A2993 FG ALL QUAD
RJFT 190332Z 15006KT 120V180 0800 R07/0300V0700N -SHRA FG SCT001 BKN003 BKN005 15/15 Q1013 RMK 3ST001 5ST003 7ST005 A2993
RJFT 190330Z 15006KT 0500 R07/0300V0900D -SHRA FG SCT001 BKN003 BKN005 15/15 Q1013 RMK 3ST001 5ST003 7ST005 A2993
RJFT 190326Z 15006KT 120V190 0500 R07/0300V0900D -SHRA FG SCT001 BKN002 BKN005 15/15 Q1013 RMK 3ST001 5ST002 7ST005 A2993
RJFT 190324Z 16006KT 120V210 0500 R07/0500VP1800D -SHRA FG FEW001 SCT002 BKN005 15/15 Q1013 RMK 1ST001 3ST002 5ST005 A2994
RJFT 190323Z 17006KT 120V220 0500 R07/0600VP1800D -SHRA FG FEW001 SCT002 BKN005 15/15 Q1013 RMK 1ST001 3ST002 5ST005 A2994
RJFT 190321Z 18006KT 120V220 0500 R07/0650VP1800D -SHRA FG FEW001 SCT002 BKN005 15/15 Q1014 RMK 1ST001 3ST002 5ST005 A2994
RJFT 190319Z 19006KT 140V230 0500 R07/0650VP1800D -SHRA FG FEW001 SCT002 BKN005 15/15 Q1014 RMK 1ST001 3ST002 5ST005 A2995
RJFT 190316Z 21006KT 160V240 0500 R07/1100VP1800D SHRA FG FEW001 SCT002 BKN005 15/15 Q1014 RMK 1ST001 3ST002 5ST005 A2995
RJFT 190310Z 21009G21KT 1500 R07/0500VP1800U SHRA BR BCFG FEW001 BKN010 BKN020 16/16 Q1014 RMK 1ST001 5CU010 7CU020 A2995 FG ALL QUAD
RJFT 190309Z 21009G21KT 1500 R07/0500VP1800U SHRA BR BCFG FEW001 BKN010 BKN020 16/16 Q1014 RMK 1ST001 5CU010 7CU020 A2994 FG ALL QUAD
RJFT 190307Z 21010G21KT 1000 R07/0500VP1800U SHRA BR BCFG FEW001 BKN010 BKN020 16/16 Q1014 RMK 1ST001 5CU010 7CU020 A2995 FG ALL QUAD
RJFT 190300Z 27008KT 1000 R07/0400V1400N +SHRA BR BCFG FEW001 BKN010 BKN020 15/15 Q1014
RJFT 190241Z 26006KT 210V310 1500 R07/1100VP1800D +SHRA BR BCFG FEW001 BKN020 BKN030 15/15 Q1014 RMK 1ST001 5CU020 7CU030 A2995 FG ALL QUAD
RJFT 190200Z 17003KT 130V240 3000 R07/0900VP1800U SHRA BR FEW001 BKN025 BKN040 14/14 Q1014
RJFT 190151Z VRB02KT 2000 R07/0650VP1800D +SHRA BR BCFG FEW001 BKN030 BKN045 14/14 Q1014 RMK 1ST001 5CU030 7SC045 A2996 FG ALL QUAD
RJFT 190129Z 29004KT 4000 SHRA BR BCFG FEW001 BKN030 BKN050 14/14 Q1014 RMK 1ST001 5CU030 7SC050 A2995 FG W-NE
RJFT 190100Z VRB01KT 9999 -SHRA FEW001 BKN035 BKN050 14/14 Q1014
RJFT 190047Z VRB02KT 9999 -SHRA BCFG FEW030 BKN040 13/13 Q1014 RMK 1CU030 7CU040 A2995 FG ALL QUAD
RJFT 190034Z VRB02KT 5000 SHRA BR BCFG FEW030 BKN040 13/13 Q1014 RMK 1CU030 7CU040 A2996 FG ALL QUAD
RJFT 190000Z VRB01KT 2000 R07/1100VP1800U SHRA BR BCFG FEW030 BKN040 BKN060 12/12 Q1014
RJFT 182335Z 01003KT 9999 -SHRA BCFG FEW030 BKN040 BKN060 11/11 Q1014 RMK 1CU030 5CU040 7SC060 A2996 FG E-W
RJFT 182300Z VRB01KT 4000 -SHRA BR BCFG FEW030 BKN045 09/09 Q1014
RJFT 182210Z 31005KT 160V330 2000 R07/1200VP1800U BCFG FEW001 BKN050 09/09 Q1015 RMK 1ST001 7SC050 A3000 FG ALL QUAD
RJFT 182206Z 33007KT 2000 R07/0650VP1800U BCFG FEW001 BKN045 BKN060 09/09 Q1016 RMK 1ST001 5SC045 7SC060 A3000 FG ALL QUAD
RJFT 182200Z 34007KT 1500 R07/0600V1400U BCFG FEW001 BKN040 BKN060 09/09 Q1015
RJFT 182110Z 02007KT 340V060 3000 -SHRA BR FEW025 BKN030 BKN040 08/08 Q1016 RMK 2CU025 5CU030 7CU040 A3002 P/FR
RJFT 181200Z VRB01KT 9999 FEW035 BKN050 BKN080 09/04 Q1023
RJFT 181100Z VRB02KT 9999 FEW035 BKN060 10/03 Q1023
RJFT 181000Z 21002KT 9999 FEW060 BKN070 10/03 Q1023
RJFT 180900Z 24003KT CAVOK 11/02 Q1023
RJFT 180800Z 23003KT CAVOK 11/M01 Q1022
RJFT 180700Z 20003KT CAVOK 11/01 Q1022